createdAt,value
2023-05-09T00:01:30.021Z,9.65
2023-05-09T00:03:33.433Z,9.18
2023-05-09T00:05:35.035Z,10.10
2023-05-09T00:09:39.055Z,9.35
2023-05-09T00:11:40.783Z,10.45
2023-05-09T00:13:44.248Z,9.95
2023-05-09T00:15:47.177Z,10.20
2023-05-09T00:17:50.694Z,10.50
2023-05-09T00:19:53.025Z,11.13
2023-05-09T00:23:56.846Z,10.70
2023-05-09T00:25:59.399Z,10.75
2023-05-09T00:28:01.089Z,10.90
2023-05-09T00:30:04.434Z,11.55
2023-05-09T00:32:06.324Z,11.57
2023-05-09T00:34:07.923Z,11.20
2023-05-09T00:36:09.554Z,11.77
2023-05-09T00:38:11.331Z,10.70
2023-05-09T00:40:13.419Z,10.45
2023-05-09T00:42:14.951Z,10.60
2023-05-09T00:44:16.517Z,11.65
2023-05-09T00:46:18.106Z,11.00
2023-05-09T00:48:20.093Z,10.43
2023-05-09T00:50:22.164Z,10.77
2023-05-09T00:52:26.080Z,10.40
2023-05-09T00:54:28.213Z,9.90
2023-05-09T00:56:30.579Z,10.00
2023-05-09T00:58:32.656Z,9.07
2023-05-09T01:00:34.316Z,10.35
2023-05-09T01:02:36.838Z,10.55
2023-05-09T01:04:40.236Z,9.68
2023-05-09T01:07:06.719Z,9.48
2023-05-09T01:09:24.235Z,9.77
2023-05-09T01:11:38.765Z,9.80
2023-05-09T01:15:59.745Z,9.52
2023-05-09T01:18:11.289Z,8.73
2023-05-09T01:20:31.311Z,9.20
2023-05-09T01:22:36.307Z,9.23
2023-05-09T01:24:59.903Z,9.82
2023-05-09T01:27:28.581Z,9.68
2023-05-09T01:29:39.399Z,9.30
2023-05-09T01:31:44.138Z,8.73
2023-05-09T01:33:51.221Z,8.63
2023-05-09T01:35:59.630Z,8.15
2023-05-09T01:38:04.674Z,8.25
2023-05-09T01:40:15.489Z,8.75
2023-05-09T01:42:20.471Z,8.70
2023-05-09T01:44:23.578Z,8.35
2023-05-09T01:46:27.259Z,9.23
2023-05-09T01:48:31.360Z,8.90
2023-05-09T01:50:36.077Z,8.77
2023-05-09T01:52:39.034Z,8.43
2023-05-09T01:54:41.954Z,9.40
2023-05-09T01:56:44.859Z,7.70
2023-05-09T01:58:50.964Z,8.02
2023-05-09T02:00:53.202Z,8.40
2023-05-09T02:02:55.529Z,8.68
2023-05-09T02:04:58.557Z,8.25
2023-05-09T02:07:01.739Z,7.50
2023-05-09T02:09:03.526Z,7.80
2023-05-09T02:11:05.350Z,8.07
2023-05-09T02:13:09.058Z,7.78
2023-05-09T02:15:11.412Z,7.28
2023-05-09T02:17:17.015Z,7.65
2023-05-09T02:19:18.678Z,7.60
2023-05-09T02:21:20.589Z,7.28
2023-05-09T02:23:22.508Z,7.32
2023-05-09T02:25:24.177Z,7.28
2023-05-09T02:27:27.539Z,7.10
2023-05-09T02:29:40.688Z,7.55
2023-05-09T02:31:44.802Z,7.20
2023-05-09T02:33:47.894Z,6.90
2023-05-09T02:35:51.037Z,7.22
2023-05-09T02:37:53.978Z,7.25
2023-05-09T02:39:55.858Z,7.65
2023-05-09T02:42:01.676Z,7.43
2023-05-09T02:44:03.285Z,7.60
2023-05-09T02:46:04.954Z,6.90
2023-05-09T02:48:08.747Z,8.38
2023-05-09T02:50:11.454Z,6.57
2023-05-09T02:52:14.239Z,7.38
2023-05-09T02:54:16.204Z,6.85
2023-05-09T02:56:17.821Z,6.68
2023-05-09T02:58:20.196Z,7.38
2023-05-09T03:00:22.203Z,6.43
2023-05-09T03:02:24.126Z,6.72
2023-05-09T03:04:27.180Z,7.53
2023-05-09T03:06:28.972Z,6.70
2023-05-09T03:08:30.963Z,7.60
2023-05-09T03:10:32.839Z,7.28
2023-05-09T03:12:34.389Z,8.00
2023-05-09T03:14:36.438Z,7.47
2023-05-09T03:16:38.282Z,7.45
2023-05-09T03:18:44.660Z,8.23
2023-05-09T03:20:46.380Z,6.88
2023-05-09T03:22:48.468Z,7.80
2023-05-09T03:26:52.800Z,8.55
2023-05-09T03:28:54.698Z,7.15
2023-05-09T03:30:56.758Z,7.90
2023-05-09T03:33:01.266Z,8.45
2023-05-09T03:35:03.201Z,7.90
2023-05-09T03:37:05.613Z,8.50
2023-05-09T03:39:09.924Z,7.80
2023-05-09T03:41:17.328Z,7.47
2023-05-09T03:43:20.598Z,8.38
2023-05-09T03:45:22.504Z,8.20
2023-05-09T03:47:24.290Z,7.57
2023-05-09T03:49:26.069Z,7.85
2023-05-09T03:51:29.644Z,7.97
2023-05-09T03:53:31.875Z,7.07
2023-05-09T03:55:33.567Z,8.13
2023-05-09T03:57:35.763Z,9.85
2023-05-09T03:59:37.535Z,10.43
2023-05-09T04:01:40.254Z,7.90
2023-05-09T04:03:43.082Z,8.20
2023-05-09T04:05:46.364Z,6.95
2023-05-09T04:07:57.286Z,7.28
2023-05-09T04:09:59.254Z,7.30
2023-05-09T04:12:01.167Z,8.13
2023-05-09T04:14:06.991Z,7.15
2023-05-09T04:16:10.461Z,7.70
2023-05-09T04:18:12.028Z,6.30
2023-05-09T04:20:13.610Z,6.63
2023-05-09T04:22:17.025Z,7.32
2023-05-09T04:24:19.039Z,7.32
2023-05-09T04:26:23.028Z,6.70
2023-05-09T04:28:27.431Z,6.60
2023-05-09T04:30:30.792Z,6.90
2023-05-09T04:32:33.864Z,6.68
2023-05-09T04:34:35.746Z,6.95
2023-05-09T04:36:43.477Z,6.93
2023-05-09T04:38:45.395Z,6.30
2023-05-09T04:40:50.892Z,6.57
2023-05-09T04:42:52.723Z,6.72
2023-05-09T04:44:57.399Z,6.88
2023-05-09T04:46:59.103Z,6.60
2023-05-09T04:49:00.808Z,6.63
2023-05-09T04:51:02.535Z,6.25
2023-05-09T04:53:04.366Z,6.82
2023-05-09T04:55:06.413Z,6.97
2023-05-09T04:57:17.731Z,6.57
2023-05-09T04:59:22.227Z,6.32
2023-05-09T05:01:25.068Z,6.88
2023-05-09T05:03:26.774Z,6.13
2023-05-09T05:05:28.666Z,6.35
2023-05-09T05:07:30.829Z,6.38
2023-05-09T05:09:32.373Z,5.88
2023-05-09T05:11:34.174Z,6.15
2023-05-09T05:13:38.047Z,5.95
2023-05-09T05:15:40.820Z,6.57
2023-05-09T05:17:43.407Z,6.05
2023-05-09T05:19:45.438Z,6.15
2023-05-09T05:23:49.305Z,6.43
2023-05-09T05:25:51.198Z,6.35
2023-05-09T05:27:53.388Z,6.13
2023-05-09T05:29:54.977Z,6.05
2023-05-09T05:31:56.876Z,6.30
2023-05-09T05:33:58.767Z,6.68
2023-05-09T05:36:00.626Z,6.60
2023-05-09T05:38:02.338Z,6.68
2023-05-09T05:40:06.014Z,6.68
2023-05-09T05:42:08.326Z,7.38
2023-05-09T05:44:10.361Z,7.55
2023-05-09T05:46:13.330Z,6.68
2023-05-09T05:48:14.907Z,7.15
2023-05-09T05:50:16.507Z,6.75
2023-05-09T05:52:18.584Z,6.88
2023-05-09T05:54:20.367Z,7.63
2023-05-09T05:56:22.672Z,7.65
2023-05-09T05:58:24.911Z,7.25
2023-05-09T06:00:27.345Z,7.18
2023-05-09T06:02:36.053Z,7.78
2023-05-09T06:04:37.964Z,7.93
2023-05-09T06:06:39.773Z,7.32
2023-05-09T06:08:41.278Z,7.38
2023-05-09T06:10:42.776Z,7.13
2023-05-09T06:12:44.366Z,6.65
2023-05-09T06:14:46.075Z,6.03
2023-05-09T06:16:48.350Z,6.85
2023-05-09T06:18:50.144Z,7.50
2023-05-09T06:20:51.646Z,7.10
2023-05-09T06:22:53.196Z,6.18
2023-05-09T06:24:54.781Z,7.50
2023-05-09T06:26:56.414Z,6.93
2023-05-09T06:28:58.603Z,6.30
2023-05-09T06:31:00.786Z,6.50
2023-05-09T06:33:02.659Z,6.50
2023-05-09T06:35:04.623Z,6.15
2023-05-09T06:37:06.452Z,6.72
2023-05-09T06:39:08.292Z,6.85
2023-05-09T06:41:09.822Z,6.88
2023-05-09T06:43:11.582Z,6.68
2023-05-09T06:45:13.976Z,6.68
2023-05-09T06:47:15.911Z,6.85
2023-05-09T06:49:17.502Z,6.80
2023-05-09T06:51:19.266Z,7.22
2023-05-09T06:53:20.798Z,7.15
2023-05-09T06:55:22.364Z,7.00
2023-05-09T06:57:23.989Z,7.15
2023-05-09T06:59:26.109Z,7.07
2023-05-09T07:01:27.750Z,6.32
2023-05-09T07:03:29.417Z,7.15
2023-05-09T07:05:31.071Z,7.55
2023-05-09T07:07:32.683Z,6.75
2023-05-09T07:09:34.769Z,6.70
2023-05-09T07:13:38.763Z,6.88
2023-05-09T07:15:42.703Z,6.80
2023-05-09T07:17:45.045Z,7.28
2023-05-09T07:19:46.874Z,7.38
2023-05-09T07:21:48.488Z,7.35
2023-05-09T07:23:50.245Z,7.70
2023-05-09T07:25:59.083Z,7.90
2023-05-09T07:28:00.983Z,7.18
2023-05-09T07:30:06.357Z,6.45
2023-05-09T07:32:09.201Z,7.90
2023-05-09T07:34:10.793Z,7.75
2023-05-09T07:36:13.555Z,7.53
2023-05-09T07:38:15.625Z,8.57
2023-05-09T07:40:18.051Z,8.25
2023-05-09T07:42:19.950Z,7.88
2023-05-09T07:44:21.471Z,7.95
2023-05-09T07:46:23.521Z,8.52
2023-05-09T07:48:25.206Z,7.35
2023-05-09T07:50:26.791Z,8.27
2023-05-09T07:52:28.834Z,9.20
2023-05-09T07:54:30.385Z,8.27
2023-05-09T07:56:31.976Z,7.93
2023-05-09T07:58:33.768Z,8.02
2023-05-09T08:00:36.018Z,7.82
2023-05-09T08:02:37.661Z,8.27
2023-05-09T08:04:41.229Z,8.35
2023-05-09T08:06:43.325Z,7.72
2023-05-09T08:08:45.089Z,8.18
2023-05-09T08:10:46.644Z,8.50
2023-05-09T08:12:48.766Z,8.32
2023-05-09T08:14:50.716Z,8.40
2023-05-09T08:16:52.286Z,8.85
2023-05-09T08:18:54.779Z,8.60
2023-05-09T08:20:56.786Z,8.82
2023-05-09T08:22:58.592Z,8.35
2023-05-09T08:25:00.383Z,8.15
2023-05-09T08:27:01.917Z,8.43
2023-05-09T08:29:03.494Z,9.02
2023-05-09T08:31:05.239Z,8.88
2023-05-09T08:33:07.188Z,8.90
2023-05-09T08:35:08.987Z,9.27
2023-05-09T08:37:12.275Z,8.60
2023-05-09T08:39:16.364Z,8.63
2023-05-09T08:41:18.265Z,9.30
2023-05-09T08:43:23.175Z,8.70
2023-05-09T08:45:29.004Z,8.60
2023-05-09T08:47:31.309Z,8.80
2023-05-09T08:49:35.063Z,8.13
2023-05-09T08:51:38.056Z,8.20
2023-05-09T08:53:40.105Z,8.45
2023-05-09T08:55:42.260Z,8.30
2023-05-09T08:57:44.135Z,8.50
2023-05-09T08:59:46.431Z,9.00
2023-05-09T09:01:50.309Z,8.43
2023-05-09T09:03:52.752Z,8.18
2023-05-09T09:05:55.820Z,9.20
2023-05-09T09:07:58.238Z,8.75
2023-05-09T09:10:00.928Z,8.18
2023-05-09T09:12:07.497Z,7.30
2023-05-09T09:14:15.488Z,8.55
2023-05-09T09:16:20.964Z,8.15
2023-05-09T09:18:27.996Z,7.03
2023-05-09T09:20:33.362Z,6.80
2023-05-09T09:22:35.712Z,7.50
2023-05-09T09:24:37.574Z,7.22
2023-05-09T09:26:48.217Z,6.72
2023-05-09T09:28:50.087Z,7.60
2023-05-09T09:30:51.961Z,7.05
2023-05-09T09:32:53.521Z,6.75
2023-05-09T09:35:06.957Z,6.35
2023-05-09T09:37:08.572Z,6.88
2023-05-09T09:39:13.629Z,6.22
2023-05-09T09:41:15.593Z,6.32
2023-05-09T09:43:17.223Z,6.60
2023-05-09T09:45:20.185Z,6.15
2023-05-09T09:47:31.478Z,6.18
2023-05-09T09:49:33.240Z,6.25
2023-05-09T09:51:35.325Z,6.70
2023-05-09T09:53:43.449Z,6.40
2023-05-09T09:55:52.481Z,5.82
2023-05-09T09:57:54.930Z,6.97
2023-05-09T09:59:59.538Z,6.30
2023-05-09T10:02:08.218Z,6.10
2023-05-09T10:04:16.090Z,6.40
2023-05-09T10:06:17.879Z,5.97
2023-05-09T10:08:19.738Z,7.32
2023-05-09T10:10:21.750Z,6.97
2023-05-09T10:12:23.722Z,6.85
2023-05-09T10:14:26.656Z,7.03
2023-05-09T10:16:42.588Z,6.70
2023-05-09T10:18:45.689Z,6.03
2023-05-09T10:20:47.324Z,6.50
2023-05-09T10:22:50.630Z,6.70
2023-05-09T10:25:13.036Z,6.10
2023-05-09T10:27:18.385Z,6.82
2023-05-09T10:29:23.926Z,6.93
2023-05-09T10:31:29.544Z,7.00
2023-05-09T10:33:37.819Z,6.07
2023-05-09T10:35:46.399Z,6.20
2023-05-09T10:37:48.347Z,7.07
2023-05-09T10:41:55.944Z,7.00
2023-05-09T10:43:58.760Z,5.78
2023-05-09T10:46:01.645Z,5.95
2023-05-09T10:48:07.050Z,6.10
2023-05-09T10:50:12.312Z,5.55
2023-05-09T10:52:14.872Z,5.80
2023-05-09T10:54:32.476Z,5.25
2023-05-09T10:56:39.487Z,4.90
2023-05-09T10:58:41.885Z,4.75
2023-05-09T11:00:43.889Z,5.45
2023-05-09T11:03:06.629Z,5.30
2023-05-09T11:05:17.516Z,4.53
2023-05-09T11:07:23.962Z,4.68
2023-05-09T11:09:38.692Z,4.85
2023-05-09T11:11:51.450Z,4.47
2023-05-09T11:13:57.889Z,4.30
2023-05-09T11:15:59.382Z,4.50
2023-05-09T11:18:09.602Z,4.72
2023-05-09T11:20:11.237Z,4.00
2023-05-09T11:22:28.004Z,4.63
2023-05-09T11:24:32.754Z,4.40
2023-05-09T11:26:34.429Z,4.03
2023-05-09T11:28:38.257Z,4.60
2023-05-09T11:30:44.397Z,4.43
2023-05-09T11:32:55.424Z,4.38
2023-05-09T11:35:07.632Z,4.18
2023-05-09T11:37:11.220Z,3.72
2023-05-09T11:39:24.835Z,3.78
2023-05-09T11:41:27.086Z,3.58
2023-05-09T11:43:29.520Z,3.58
2023-05-09T11:45:33.471Z,3.40
2023-05-09T11:47:37.121Z,3.33
2023-05-09T11:49:43.005Z,3.80
2023-05-09T11:51:44.755Z,3.47
2023-05-09T11:53:50.438Z,3.33
2023-05-09T11:55:52.265Z,3.53
2023-05-09T11:57:54.691Z,3.70
2023-05-09T11:59:56.639Z,3.40
2023-05-09T12:04:07.641Z,3.15
2023-05-09T12:06:09.399Z,3.30
2023-05-09T12:08:10.969Z,3.72
2023-05-09T12:10:15.736Z,3.60
2023-05-09T12:12:20.763Z,3.20
2023-05-09T12:14:33.421Z,3.80
2023-05-09T12:16:35.079Z,3.03
2023-05-09T12:18:36.955Z,3.67
2023-05-09T12:20:43.760Z,3.85
2023-05-09T12:22:52.892Z,3.42
2023-05-09T12:24:54.776Z,3.22
2023-05-09T12:28:59.014Z,3.50
2023-05-09T12:31:01.574Z,3.55
2023-05-09T12:33:03.356Z,3.60
2023-05-09T12:35:06.363Z,3.45
2023-05-09T12:37:18.080Z,3.60
2023-05-09T12:39:24.516Z,3.47
2023-05-09T12:43:32.674Z,3.80
2023-05-09T12:45:34.304Z,3.63
2023-05-09T12:47:37.205Z,3.33
2023-05-09T12:49:39.011Z,2.97
2023-05-09T12:51:48.258Z,2.78
2023-05-09T12:53:50.099Z,3.50
2023-05-09T12:58:01.506Z,2.80
2023-05-09T13:00:06.535Z,3.03
2023-05-09T13:02:08.146Z,3.00
2023-05-09T13:04:12.541Z,2.25
2023-05-09T13:06:14.630Z,2.72
2023-05-09T13:08:16.274Z,2.65
2023-05-09T13:10:27.328Z,3.20
2023-05-09T13:12:29.114Z,3.55
2023-05-09T13:14:30.924Z,3.17
2023-05-09T13:18:34.109Z,2.92
2023-05-09T13:20:35.767Z,2.67
2023-05-09T13:22:37.589Z,2.78
2023-05-09T13:26:40.704Z,2.72
2023-05-09T13:28:42.238Z,2.25
2023-05-09T13:30:45.643Z,2.50
2023-05-09T13:32:47.581Z,2.78
2023-05-09T13:34:51.046Z,2.30
2023-05-09T13:36:52.783Z,2.80
2023-05-09T13:38:54.564Z,2.50
2023-05-09T13:42:57.578Z,2.45
2023-05-09T13:44:59.446Z,2.90
2023-05-09T13:47:01.298Z,2.53
2023-05-09T13:49:02.911Z,2.83
2023-05-09T13:51:06.184Z,2.45
2023-05-09T13:53:08.234Z,2.33
2023-05-09T13:55:09.858Z,2.40
2023-05-09T13:57:11.529Z,2.30
2023-05-09T13:59:13.481Z,1.92
2023-05-09T14:01:15.865Z,2.30
2023-05-09T14:03:17.761Z,2.03
2023-05-09T14:07:21.533Z,1.95
2023-05-09T14:09:23.197Z,2.20
2023-05-09T14:11:25.634Z,2.53
2023-05-09T14:13:27.338Z,2.30
2023-05-09T14:15:30.048Z,2.17
2023-05-09T14:17:31.806Z,2.40
2023-05-09T14:21:36.421Z,2.60
2023-05-09T14:23:38.424Z,2.38
2023-05-09T14:25:39.940Z,2.33
2023-05-09T14:27:41.900Z,2.08
2023-05-09T14:29:47.488Z,2.35
2023-05-09T14:31:49.069Z,2.42
2023-05-09T14:35:52.328Z,2.10
2023-05-09T14:37:53.901Z,2.35
2023-05-09T14:39:56.063Z,2.22
2023-05-09T14:41:57.589Z,2.22
2023-05-09T14:43:59.513Z,2.22
2023-05-09T14:46:01.044Z,1.90
2023-05-09T14:48:03.653Z,2.35
2023-05-09T14:50:05.899Z,2.22
2023-05-09T14:52:07.552Z,2.13
2023-05-09T14:54:09.079Z,2.00
2023-05-09T14:56:13.418Z,2.30
2023-05-09T14:58:16.054Z,4.03
2023-05-09T15:00:21.966Z,2.00
2023-05-09T15:02:24.938Z,3.10
2023-05-09T15:04:31.766Z,2.40
2023-05-09T15:06:35.191Z,2.30
2023-05-09T15:08:36.798Z,2.03
2023-05-09T15:10:38.630Z,2.30
2023-05-09T15:14:42.478Z,2.22
2023-05-09T15:16:44.142Z,2.03
2023-05-09T15:20:47.610Z,1.90
2023-05-09T15:22:50.759Z,1.98
2023-05-09T15:24:52.358Z,2.03
2023-05-09T15:26:54.455Z,2.30
2023-05-09T15:28:56.347Z,2.35
2023-05-09T15:33:01.947Z,2.10
2023-05-09T15:35:04.365Z,1.90
2023-05-09T15:37:06.206Z,2.03
2023-05-09T15:39:08.018Z,1.90
2023-05-09T15:41:09.624Z,2.08
2023-05-09T15:43:11.700Z,2.10
2023-05-09T15:45:14.189Z,1.90
2023-05-09T15:47:16.086Z,2.22
2023-05-09T15:49:18.309Z,2.22
2023-05-09T15:51:19.823Z,2.35
2023-05-09T15:53:22.990Z,2.08
2023-05-09T15:55:26.802Z,1.73
2023-05-09T15:57:30.066Z,1.77
2023-05-09T15:59:31.897Z,2.15
2023-05-09T16:01:35.306Z,1.75
2023-05-09T16:03:37.552Z,1.85
2023-05-09T16:05:40.967Z,1.80
2023-05-09T16:07:46.660Z,1.80
2023-05-09T16:09:48.265Z,1.83
2023-05-09T16:11:50.947Z,2.20
2023-05-09T16:13:52.940Z,1.50
2023-05-09T16:15:54.621Z,1.67
2023-05-09T16:17:56.574Z,1.80
2023-05-09T16:20:01.861Z,1.60
2023-05-09T16:22:03.691Z,1.63
2023-05-09T16:24:05.571Z,1.65
2023-05-09T16:28:10.112Z,1.50
2023-05-09T16:30:12.187Z,1.83
2023-05-09T16:32:14.001Z,1.77
2023-05-09T16:34:15.917Z,2.10
2023-05-09T16:36:17.748Z,1.77
2023-05-09T16:38:19.603Z,1.77
2023-05-09T16:40:21.732Z,1.65
2023-05-09T16:42:23.490Z,1.60
2023-05-09T16:44:26.380Z,1.60
2023-05-09T16:46:28.245Z,1.77
2023-05-09T16:48:29.899Z,1.70
2023-05-09T16:50:31.600Z,1.65
2023-05-09T16:52:33.345Z,1.52
2023-05-09T16:54:34.901Z,1.90
2023-05-09T16:56:37.515Z,1.45
2023-05-09T16:58:39.525Z,1.65
2023-05-09T17:00:41.413Z,1.60
2023-05-09T17:02:42.997Z,1.90
2023-05-09T17:04:44.629Z,1.80
2023-05-09T17:06:46.271Z,1.67
2023-05-09T17:08:48.388Z,1.50
2023-05-09T17:10:49.901Z,1.60
2023-05-09T17:12:51.836Z,1.58
2023-05-09T17:14:53.698Z,1.73
2023-05-09T17:16:55.469Z,1.70
2023-05-09T17:18:57.268Z,1.58
2023-05-09T17:20:58.951Z,1.50
2023-05-09T17:23:00.497Z,1.40
2023-05-09T17:25:02.385Z,1.60
2023-05-09T17:27:04.672Z,1.52
2023-05-09T17:29:06.345Z,1.52
2023-05-09T17:31:08.119Z,1.40
2023-05-09T17:33:09.859Z,1.50
2023-05-09T17:35:12.243Z,1.42
2023-05-09T17:37:13.844Z,1.60
2023-05-09T17:39:15.449Z,1.42
2023-05-09T17:41:17.501Z,1.65
2023-05-09T17:45:20.922Z,1.50
2023-05-09T17:47:22.729Z,1.50
2023-05-09T17:49:24.966Z,1.42
2023-05-09T17:51:27.137Z,1.45
2023-05-09T17:55:30.250Z,1.33
2023-05-09T17:57:31.879Z,1.40
2023-05-09T17:59:33.686Z,1.70
2023-05-09T18:01:35.813Z,1.40
2023-05-09T18:03:37.788Z,1.38
2023-05-09T18:07:41.358Z,1.55
2023-05-09T18:09:42.889Z,1.60
2023-05-09T18:11:44.718Z,1.33
2023-05-09T18:13:46.731Z,1.42
2023-05-09T18:17:50.223Z,1.35
2023-05-09T18:19:53.000Z,1.40
2023-05-09T18:21:57.650Z,1.40
2023-05-09T18:23:59.746Z,1.40
2023-05-09T18:28:03.489Z,1.73
2023-05-09T18:30:06.183Z,1.63
2023-05-09T18:32:07.812Z,1.60
2023-05-09T18:34:09.393Z,1.48
2023-05-09T18:36:11.274Z,1.80
2023-05-09T18:38:13.135Z,1.90
2023-05-09T18:40:16.261Z,2.10
2023-05-09T18:42:18.111Z,1.95
2023-05-09T18:44:19.636Z,2.45
2023-05-09T18:46:21.467Z,2.80
2023-05-09T18:48:23.160Z,3.83
2023-05-09T18:50:24.725Z,4.07
2023-05-09T18:54:29.396Z,4.32
2023-05-09T18:56:31.070Z,4.68
2023-05-09T18:58:33.299Z,4.18
2023-05-09T19:00:35.820Z,4.15
2023-05-09T19:02:38.097Z,4.03
2023-05-09T19:04:40.224Z,4.20
2023-05-09T19:08:44.151Z,4.72
2023-05-09T19:10:45.888Z,4.32
2023-05-09T19:12:49.254Z,4.95
2023-05-09T19:14:50.919Z,4.43
2023-05-09T19:16:52.661Z,4.35
2023-05-09T19:18:56.148Z,4.88
2023-05-09T19:20:57.851Z,5.38
2023-05-09T19:22:59.551Z,4.90
2023-05-09T19:25:01.422Z,4.65
2023-05-09T19:27:04.181Z,4.25
2023-05-09T19:29:08.294Z,4.10
2023-05-09T19:31:10.175Z,4.53
2023-05-09T19:33:11.818Z,5.20
2023-05-09T19:35:13.305Z,4.53
2023-05-09T19:37:15.071Z,4.82
2023-05-09T19:39:16.704Z,5.20
2023-05-09T19:41:18.250Z,4.35
2023-05-09T19:43:20.038Z,5.00
2023-05-09T19:45:21.561Z,5.25
2023-05-09T19:47:23.164Z,5.20
2023-05-09T19:49:24.759Z,4.78
2023-05-09T19:51:26.432Z,5.10
2023-05-09T19:53:28.068Z,4.68
2023-05-09T19:55:29.848Z,4.60
2023-05-09T19:57:31.495Z,4.97
2023-05-09T19:59:33.106Z,4.50
2023-05-09T20:01:34.723Z,4.65
2023-05-09T20:03:37.269Z,5.38
2023-05-09T20:05:39.104Z,5.13
2023-05-09T20:07:40.765Z,5.15
2023-05-09T20:09:42.674Z,4.78
2023-05-09T20:11:44.222Z,5.15
2023-05-09T20:13:45.861Z,5.13
2023-05-09T20:15:47.934Z,5.25
2023-05-09T20:17:49.547Z,4.97
2023-05-09T20:19:51.801Z,5.22
2023-05-09T20:23:54.847Z,4.85
2023-05-09T20:25:56.818Z,4.80
2023-05-09T20:27:58.917Z,5.35
2023-05-09T20:32:02.572Z,4.22
2023-05-09T20:34:04.402Z,4.22
2023-05-09T20:36:09.357Z,4.38
2023-05-09T20:38:12.128Z,4.80
2023-05-09T20:40:14.336Z,4.47
2023-05-09T20:42:16.255Z,4.30
2023-05-09T20:44:18.323Z,4.07
2023-05-09T20:46:20.489Z,4.35
2023-05-09T20:48:23.400Z,4.32
2023-05-09T20:50:25.131Z,4.50
2023-05-09T20:52:26.793Z,4.80
2023-05-09T20:54:28.951Z,4.47
2023-05-09T20:56:30.555Z,4.40
2023-05-09T20:58:34.217Z,4.20
2023-05-09T21:00:35.814Z,4.05
2023-05-09T21:02:37.615Z,3.55
2023-05-09T21:04:39.623Z,3.72
2023-05-09T21:06:41.308Z,3.40
2023-05-09T21:08:43.211Z,2.95
2023-05-09T21:10:44.985Z,3.38
2023-05-09T21:12:46.534Z,3.03
2023-05-09T21:14:48.951Z,3.50
2023-05-09T21:16:51.573Z,2.92
2023-05-09T21:18:53.323Z,3.17
2023-05-09T21:20:54.929Z,3.13
2023-05-09T21:22:56.433Z,2.70
2023-05-09T21:24:58.022Z,2.50
2023-05-09T21:27:00.131Z,2.70
2023-05-09T21:29:01.675Z,3.22
2023-05-09T21:31:03.530Z,3.05
2023-05-09T21:33:05.370Z,3.10
2023-05-09T21:35:10.925Z,3.03
2023-05-09T21:37:12.564Z,2.90
2023-05-09T21:39:14.171Z,2.63
2023-05-09T21:41:15.858Z,2.95
2023-05-09T21:43:18.245Z,2.60
2023-05-09T21:45:19.882Z,2.97
2023-05-09T21:47:21.773Z,3.13
2023-05-09T21:49:23.454Z,2.78
2023-05-09T21:51:25.218Z,2.83
2023-05-09T21:53:26.965Z,2.65
2023-05-09T21:55:28.560Z,2.85
2023-05-09T21:57:30.325Z,2.65
2023-05-09T21:59:32.806Z,2.75
2023-05-09T22:01:34.364Z,2.42
2023-05-09T22:03:36.406Z,2.17
2023-05-09T22:05:38.048Z,1.90
2023-05-09T22:07:39.703Z,2.40
2023-05-09T22:09:41.446Z,2.20
2023-05-09T22:11:43.226Z,2.50
2023-05-09T22:13:44.810Z,2.08
2023-05-09T22:15:46.887Z,2.03
2023-05-09T22:17:48.898Z,2.10
2023-05-09T22:19:50.423Z,2.25
2023-05-09T22:21:52.452Z,2.40
2023-05-09T22:23:54.164Z,2.35
2023-05-09T22:25:55.794Z,2.22
2023-05-09T22:27:57.382Z,2.45
2023-05-09T22:29:58.999Z,2.35
2023-05-09T22:32:01.955Z,2.15
2023-05-09T22:34:03.786Z,2.22
2023-05-09T22:36:05.700Z,2.08
2023-05-09T22:38:07.241Z,2.03
2023-05-09T22:40:09.422Z,1.73
2023-05-09T22:42:11.374Z,1.80
2023-05-09T22:44:13.041Z,1.92
2023-05-09T22:46:14.572Z,1.73
2023-05-09T22:48:16.273Z,2.03
2023-05-09T22:50:18.098Z,1.75
2023-05-09T22:52:20.082Z,1.88
2023-05-09T22:54:22.330Z,1.70
2023-05-09T22:56:23.961Z,1.88
2023-05-09T22:58:26.329Z,2.13
2023-05-09T23:00:29.114Z,1.63
2023-05-09T23:02:31.564Z,1.55
2023-05-09T23:04:33.196Z,1.48
2023-05-09T23:06:34.969Z,1.33
2023-05-09T23:08:36.536Z,1.23
2023-05-09T23:10:38.024Z,1.40
2023-05-09T23:12:39.518Z,1.05
2023-05-09T23:14:41.246Z,1.00
2023-05-09T23:16:42.787Z,0.98
2023-05-09T23:18:44.336Z,1.10
2023-05-09T23:20:45.801Z,1.00
2023-05-09T23:22:47.608Z,0.93
2023-05-09T23:24:49.341Z,0.93
2023-05-09T23:26:51.308Z,1.00
2023-05-09T23:28:55.131Z,0.95
2023-05-09T23:30:56.656Z,1.20
2023-05-09T23:32:58.267Z,0.80
2023-05-09T23:34:59.802Z,0.80
2023-05-09T23:37:02.798Z,0.88
2023-05-09T23:39:04.363Z,0.95
2023-05-09T23:41:06.267Z,0.80
2023-05-09T23:43:07.830Z,0.80
2023-05-09T23:45:10.352Z,0.80
2023-05-09T23:47:12.018Z,0.95
2023-05-09T23:49:14.559Z,1.00
2023-05-09T23:51:16.292Z,0.93
2023-05-09T23:53:17.949Z,0.70
2023-05-09T23:57:21.497Z,0.90
2023-05-09T23:59:23.007Z,0.75
